sensor_id;sensor_type;location;lat;lon;timestamp;temperature;humidity
35425;DHT22;21537;48.226;16.400;2022-07-23T00:00:14;25.40;94.30
35425;DHT22;21537;48.226;16.400;2022-07-23T00:02:41;25.40;94.60
35425;DHT22;21537;48.226;16.400;2022-07-23T00:05:07;25.40;94.50
35425;DHT22;21537;48.226;16.400;2022-07-23T00:07:33;25.40;94.70
35425;DHT22;21537;48.226;16.400;2022-07-23T00:09:59;25.40;94.80
35425;DHT22;21537;48.226;16.400;2022-07-23T00:12:25;25.30;94.90
35425;DHT22;21537;48.226;16.400;2022-07-23T00:14:51;25.30;95.00
35425;DHT22;21537;48.226;16.400;2022-07-23T00:17:17;25.30;95.10
35425;DHT22;21537;48.226;16.400;2022-07-23T00:19:43;25.30;95.00
35425;DHT22;21537;48.226;16.400;2022-07-23T00:22:08;25.30;95.00
35425;DHT22;21537;48.226;16.400;2022-07-23T00:24:34;25.30;95.10
35425;DHT22;21537;48.226;16.400;2022-07-23T00:27:00;25.30;95.20
35425;DHT22;21537;48.226;16.400;2022-07-23T00:29:26;25.30;95.30
35425;DHT22;21537;48.226;16.400;2022-07-23T00:31:52;25.20;95.20
35425;DHT22;21537;48.226;16.400;2022-07-23T00:34:18;25.20;95.10
35425;DHT22;21537;48.226;16.400;2022-07-23T00:36:44;25.20;95.20
35425;DHT22;21537;48.226;16.400;2022-07-23T00:39:09;25.20;95.20
35425;DHT22;21537;48.226;16.400;2022-07-23T00:41:35;25.20;95.20
35425;DHT22;21537;48.226;16.400;2022-07-23T00:44:21;25.20;95.30
35425;DHT22;21537;48.226;16.400;2022-07-23T00:46:50;25.20;95.40
35425;DHT22;21537;48.226;16.400;2022-07-23T00:49:19;25.10;95.50
35425;DHT22;21537;48.226;16.400;2022-07-23T00:51:46;25.20;95.70
35425;DHT22;21537;48.226;16.400;2022-07-23T00:54:12;25.10;95.70
35425;DHT22;21537;48.226;16.400;2022-07-23T00:56:38;25.00;95.40
35425;DHT22;21537;48.226;16.400;2022-07-23T00:59:06;25.00;95.70
35425;DHT22;21537;48.226;16.400;2022-07-23T01:01:33;25.00;95.50
35425;DHT22;21537;48.226;16.400;2022-07-23T01:03:59;25.00;95.20
35425;DHT22;21537;48.226;16.400;2022-07-23T01:06:25;25.00;95.80
35425;DHT22;21537;48.226;16.400;2022-07-23T01:08:50;25.00;95.50
35425;DHT22;21537;48.226;16.400;2022-07-23T01:11:18;25.00;95.90
35425;DHT22;21537;48.226;16.400;2022-07-23T01:13:45;25.00;96.00
35425;DHT22;21537;48.226;16.400;2022-07-23T01:16:11;25.10;95.70
35425;DHT22;21537;48.226;16.400;2022-07-23T01:18:37;25.10;95.50
35425;DHT22;21537;48.226;16.400;2022-07-23T01:21:03;25.10;94.50
35425;DHT22;21537;48.226;16.400;2022-07-23T01:23:29;25.10;94.30
35425;DHT22;21537;48.226;16.400;2022-07-23T01:25:57;25.10;94.40
35425;DHT22;21537;48.226;16.400;2022-07-23T01:28:25;25.00;94.30
35425;DHT22;21537;48.226;16.400;2022-07-23T01:30:51;25.10;94.60
35425;DHT22;21537;48.226;16.400;2022-07-23T01:33:17;25.10;94.40
35425;DHT22;21537;48.226;16.400;2022-07-23T01:35:43;25.20;94.30
35425;DHT22;21537;48.226;16.400;2022-07-23T01:38:12;25.20;94.10
35425;DHT22;21537;48.226;16.400;2022-07-23T01:40:39;25.20;93.80
35425;DHT22;21537;48.226;16.400;2022-07-23T01:43:05;25.30;93.30
35425;DHT22;21537;48.226;16.400;2022-07-23T01:45:33;25.40;93.20
35425;DHT22;21537;48.226;16.400;2022-07-23T01:47:59;25.40;93.40
35425;DHT22;21537;48.226;16.400;2022-07-23T01:50:25;25.50;93.70
35425;DHT22;21537;48.226;16.400;2022-07-23T01:53:10;25.50;93.80
35425;DHT22;21537;48.226;16.400;2022-07-23T01:55:36;25.50;94.00
35425;DHT22;21537;48.226;16.400;2022-07-23T01:58:03;25.60;94.30
35425;DHT22;21537;48.226;16.400;2022-07-23T02:00:30;25.60;94.00
35425;DHT22;21537;48.226;16.400;2022-07-23T02:02:56;25.70;94.40
35425;DHT22;21537;48.226;16.400;2022-07-23T02:05:25;25.70;94.90
35425;DHT22;21537;48.226;16.400;2022-07-23T02:07:51;25.60;95.20
35425;DHT22;21537;48.226;16.400;2022-07-23T02:10:18;25.70;95.50
35425;DHT22;21537;48.226;16.400;2022-07-23T02:12:44;25.60;95.60
35425;DHT22;21537;48.226;16.400;2022-07-23T02:15:10;25.60;95.70
35425;DHT22;21537;48.226;16.400;2022-07-23T02:17:36;25.60;95.60
35425;DHT22;21537;48.226;16.400;2022-07-23T02:20:03;25.60;95.60
35425;DHT22;21537;48.226;16.400;2022-07-23T02:22:29;25.50;95.60
35425;DHT22;21537;48.226;16.400;2022-07-23T02:24:54;25.50;95.70
35425;DHT22;21537;48.226;16.400;2022-07-23T02:27:20;25.50;95.80
35425;DHT22;21537;48.226;16.400;2022-07-23T02:29:46;25.40;95.90
35425;DHT22;21537;48.226;16.400;2022-07-23T02:32:13;25.40;96.10
35425;DHT22;21537;48.226;16.400;2022-07-23T02:34:39;25.40;96.30
35425;DHT22;21537;48.226;16.400;2022-07-23T02:37:05;25.40;96.40
35425;DHT22;21537;48.226;16.400;2022-07-23T02:39:31;25.40;96.40
35425;DHT22;21537;48.226;16.400;2022-07-23T02:41:58;25.40;96.50
35425;DHT22;21537;48.226;16.400;2022-07-23T02:44:25;25.40;96.50
35425;DHT22;21537;48.226;16.400;2022-07-23T02:46:53;25.30;96.60
35425;DHT22;21537;48.226;16.400;2022-07-23T02:49:19;25.30;96.70
35425;DHT22;21537;48.226;16.400;2022-07-23T02:51:47;25.30;96.90
35425;DHT22;21537;48.226;16.400;2022-07-23T02:54:13;25.30;97.40
35425;DHT22;21537;48.226;16.400;2022-07-23T02:56:39;25.30;97.60
35425;DHT22;21537;48.226;16.400;2022-07-23T02:59:05;25.20;97.80
35425;DHT22;21537;48.226;16.400;2022-07-23T03:01:31;25.20;98.20
35425;DHT22;21537;48.226;16.400;2022-07-23T03:03:57;25.10;98.40
35425;DHT22;21537;48.226;16.400;2022-07-23T03:06:23;25.00;98.60
35425;DHT22;21537;48.226;16.400;2022-07-23T03:08:49;25.00;98.80
35425;DHT22;21537;48.226;16.400;2022-07-23T03:11:15;25.00;99.20
35425;DHT22;21537;48.226;16.400;2022-07-23T03:13:41;25.00;99.10
35425;DHT22;21537;48.226;16.400;2022-07-23T03:16:07;24.90;99.10
35425;DHT22;21537;48.226;16.400;2022-07-23T03:18:35;25.00;99.20
35425;DHT22;21537;48.226;16.400;2022-07-23T03:21:01;24.90;99.20
35425;DHT22;21537;48.226;16.400;2022-07-23T03:23:27;24.90;99.60
35425;DHT22;21537;48.226;16.400;2022-07-23T03:25:53;24.90;99.70
35425;DHT22;21537;48.226;16.400;2022-07-23T03:28:19;24.90;99.70
35425;DHT22;21537;48.226;16.400;2022-07-23T03:30:46;25.00;99.70
35425;DHT22;21537;48.226;16.400;2022-07-23T03:33:13;25.00;99.60
35425;DHT22;21537;48.226;16.400;2022-07-23T03:35:39;25.00;99.40
35425;DHT22;21537;48.226;16.400;2022-07-23T03:38:31;25.10;99.40
35425;DHT22;21537;48.226;16.400;2022-07-23T03:40:57;25.10;99.50
35425;DHT22;21537;48.226;16.400;2022-07-23T03:43:23;25.10;99.70
35425;DHT22;21537;48.226;16.400;2022-07-23T03:45:51;25.10;99.90
35425;DHT22;21537;48.226;16.400;2022-07-23T03:48:18;25.00;99.90
35425;DHT22;21537;48.226;16.400;2022-07-23T03:50:44;25.00;99.90
35425;DHT22;21537;48.226;16.400;2022-07-23T03:53:10;25.00;99.90
35425;DHT22;21537;48.226;16.400;2022-07-23T03:55:36;25.00;99.90
35425;DHT22;21537;48.226;16.400;2022-07-23T03:58:02;25.00;99.90
35425;DHT22;21537;48.226;16.400;2022-07-23T04:00:28;25.00;99.90
35425;DHT22;21537;48.226;16.400;2022-07-23T04:02:53;25.00;99.90
35425;DHT22;21537;48.226;16.400;2022-07-23T04:05:19;25.00;99.90
35425;DHT22;21537;48.226;16.400;2022-07-23T04:07:49;25.00;99.90
35425;DHT22;21537;48.226;16.400;2022-07-23T04:10:15;25.00;99.90
35425;DHT22;21537;48.226;16.400;2022-07-23T04:12:41;25.00;99.90
35425;DHT22;21537;48.226;16.400;2022-07-23T04:15:08;25.00;99.90
35425;DHT22;21537;48.226;16.400;2022-07-23T04:17:35;25.00;99.90
35425;DHT22;21537;48.226;16.400;2022-07-23T04:20:02;25.00;99.90
35425;DHT22;21537;48.226;16.400;2022-07-23T04:22:34;25.00;99.90
35425;DHT22;21537;48.226;16.400;2022-07-23T04:24:59;25.00;99.90
35425;DHT22;21537;48.226;16.400;2022-07-23T04:27:25;25.00;99.90
35425;DHT22;21537;48.226;16.400;2022-07-23T04:29:51;25.00;99.90
35425;DHT22;21537;48.226;16.400;2022-07-23T04:32:17;25.00;99.90
35425;DHT22;21537;48.226;16.400;2022-07-23T04:34:42;25.10;99.90
35425;DHT22;21537;48.226;16.400;2022-07-23T04:37:08;25.20;99.90
35425;DHT22;21537;48.226;16.400;2022-07-23T04:39:35;25.20;99.90
35425;DHT22;21537;48.226;16.400;2022-07-23T04:42:01;25.30;99.90
35425;DHT22;21537;48.226;16.400;2022-07-23T04:44:29;25.40;99.70
35425;DHT22;21537;48.226;16.400;2022-07-23T04:46:55;25.50;99.40
35425;DHT22;21537;48.226;16.400;2022-07-23T04:49:22;25.50;99.60
35425;DHT22;21537;48.226;16.400;2022-07-23T04:51:48;25.60;99.60
35425;DHT22;21537;48.226;16.400;2022-07-23T04:54:14;25.60;99.20
35425;DHT22;21537;48.226;16.400;2022-07-23T04:56:40;25.60;99.10
35425;DHT22;21537;48.226;16.400;2022-07-23T04:59:06;25.70;99.10
35425;DHT22;21537;48.226;16.400;2022-07-23T05:01:32;25.70;99.10
35425;DHT22;21537;48.226;16.400;2022-07-23T05:03:58;25.80;98.80
35425;DHT22;21537;48.226;16.400;2022-07-23T05:06:27;25.80;99.00
35425;DHT22;21537;48.226;16.400;2022-07-23T05:08:53;25.70;98.70
35425;DHT22;21537;48.226;16.400;2022-07-23T05:11:20;25.50;98.90
35425;DHT22;21537;48.226;16.400;2022-07-23T05:13:46;25.50;99.20
35425;DHT22;21537;48.226;16.400;2022-07-23T05:16:12;25.50;99.50
35425;DHT22;21537;48.226;16.400;2022-07-23T05:18:39;25.70;99.50
35425;DHT22;21537;48.226;16.400;2022-07-23T05:21:05;25.90;99.20
35425;DHT22;21537;48.226;16.400;2022-07-23T05:23:31;26.00;98.60
35425;DHT22;21537;48.226;16.400;2022-07-23T05:25:56;26.20;98.20
35425;DHT22;21537;48.226;16.400;2022-07-23T05:28:24;26.30;98.20
35425;DHT22;21537;48.226;16.400;2022-07-23T05:30:51;26.30;98.20
35425;DHT22;21537;48.226;16.400;2022-07-23T05:33:19;26.50;98.00
35425;DHT22;21537;48.226;16.400;2022-07-23T05:35:45;26.50;97.70
35425;DHT22;21537;48.226;16.400;2022-07-23T05:38:20;26.60;97.50
35425;DHT22;21537;48.226;16.400;2022-07-23T05:40:48;26.60;97.30
35425;DHT22;21537;48.226;16.400;2022-07-23T05:43:13;26.90;96.60
35425;DHT22;21537;48.226;16.400;2022-07-23T05:45:39;27.40;96.20
35425;DHT22;21537;48.226;16.400;2022-07-23T05:48:05;27.80;94.50
35425;DHT22;21537;48.226;16.400;2022-07-23T05:50:37;28.10;93.60
35425;DHT22;21537;48.226;16.400;2022-07-23T05:53:20;28.30;92.90
35425;DHT22;21537;48.226;16.400;2022-07-23T05:55:58;28.40;92.60
35425;DHT22;21537;48.226;16.400;2022-07-23T05:58:24;28.50;92.30
35425;DHT22;21537;48.226;16.400;2022-07-23T06:00:49;28.60;92.00
35425;DHT22;21537;48.226;16.400;2022-07-23T06:03:15;28.50;91.90
35425;DHT22;21537;48.226;16.400;2022-07-23T06:05:41;28.40;91.90
35425;DHT22;21537;48.226;16.400;2022-07-23T06:08:08;28.60;92.00
35425;DHT22;21537;48.226;16.400;2022-07-23T06:10:34;28.70;91.90
35425;DHT22;21537;48.226;16.400;2022-07-23T06:13:00;28.70;92.20
35425;DHT22;21537;48.226;16.400;2022-07-23T06:15:26;28.60;92.40
35425;DHT22;21537;48.226;16.400;2022-07-23T06:17:52;28.50;92.60
35425;DHT22;21537;48.226;16.400;2022-07-23T06:20:18;28.50;92.70
35425;DHT22;21537;48.226;16.400;2022-07-23T06:22:44;28.20;93.10
35425;DHT22;21537;48.226;16.400;2022-07-23T06:25:11;28.10;93.50
35425;DHT22;21537;48.226;16.400;2022-07-23T06:27:37;28.10;93.60
35425;DHT22;21537;48.226;16.400;2022-07-23T06:30:03;28.20;93.40
35425;DHT22;21537;48.226;16.400;2022-07-23T06:32:28;28.50;93.30
35425;DHT22;21537;48.226;16.400;2022-07-23T06:34:54;28.60;93.20
35425;DHT22;21537;48.226;16.400;2022-07-23T06:37:20;28.60;93.20
35425;DHT22;21537;48.226;16.400;2022-07-23T06:39:46;28.50;93.20
35425;DHT22;21537;48.226;16.400;2022-07-23T06:42:12;28.50;93.30
35425;DHT22;21537;48.226;16.400;2022-07-23T06:44:43;28.50;92.90
35425;DHT22;21537;48.226;16.400;2022-07-23T06:47:09;28.60;92.70
35425;DHT22;21537;48.226;16.400;2022-07-23T06:49:35;28.70;92.30
35425;DHT22;21537;48.226;16.400;2022-07-23T06:52:01;28.70;92.10
35425;DHT22;21537;48.226;16.400;2022-07-23T06:54:26;28.80;91.90
35425;DHT22;21537;48.226;16.400;2022-07-23T06:56:52;28.90;91.70
35425;DHT22;21537;48.226;16.400;2022-07-23T06:59:18;28.90;91.50
35425;DHT22;21537;48.226;16.400;2022-07-23T07:01:44;29.00;91.30
35425;DHT22;21537;48.226;16.400;2022-07-23T07:04:10;29.00;90.90
35425;DHT22;21537;48.226;16.400;2022-07-23T07:06:35;29.20;90.50
35425;DHT22;21537;48.226;16.400;2022-07-23T07:09:01;29.30;90.20
35425;DHT22;21537;48.226;16.400;2022-07-23T07:11:27;29.40;89.50
35425;DHT22;21537;48.226;16.400;2022-07-23T07:13:53;29.50;89.40
35425;DHT22;21537;48.226;16.400;2022-07-23T07:16:19;29.50;87.00
35425;DHT22;21537;48.226;16.400;2022-07-23T07:18:44;29.60;86.10
35425;DHT22;21537;48.226;16.400;2022-07-23T07:21:10;29.60;85.20
35425;DHT22;21537;48.226;16.400;2022-07-23T07:23:36;29.70;84.90
35425;DHT22;21537;48.226;16.400;2022-07-23T07:26:02;29.70;83.70
35425;DHT22;21537;48.226;16.400;2022-07-23T07:28:28;29.70;83.60
35425;DHT22;21537;48.226;16.400;2022-07-23T07:30:54;29.80;82.80
35425;DHT22;21537;48.226;16.400;2022-07-23T07:33:19;29.80;82.80
35425;DHT22;21537;48.226;16.400;2022-07-23T07:35:46;29.90;82.40
35425;DHT22;21537;48.226;16.400;2022-07-23T07:38:12;30.00;81.90
35425;DHT22;21537;48.226;16.400;2022-07-23T07:40:38;30.00;81.80
35425;DHT22;21537;48.226;16.400;2022-07-23T07:43:04;30.00;80.70
35425;DHT22;21537;48.226;16.400;2022-07-23T07:45:30;30.00;80.30
35425;DHT22;21537;48.226;16.400;2022-07-23T07:47:56;30.10;80.30
35425;DHT22;21537;48.226;16.400;2022-07-23T07:50:23;30.10;79.70
35425;DHT22;21537;48.226;16.400;2022-07-23T07:52:48;30.20;79.60
35425;DHT22;21537;48.226;16.400;2022-07-23T07:55:14;30.20;80.00
35425;DHT22;21537;48.226;16.400;2022-07-23T07:57:40;30.30;79.80
35425;DHT22;21537;48.226;16.400;2022-07-23T08:00:09;30.40;79.80
35425;DHT22;21537;48.226;16.400;2022-07-23T08:02:52;30.50;79.20
35425;DHT22;21537;48.226;16.400;2022-07-23T08:05:21;30.50;78.40
35425;DHT22;21537;48.226;16.400;2022-07-23T08:07:47;30.70;78.00
35425;DHT22;21537;48.226;16.400;2022-07-23T08:10:12;30.70;78.10
35425;DHT22;21537;48.226;16.400;2022-07-23T08:15:11;31.00;77.50
35425;DHT22;21537;48.226;16.400;2022-07-23T08:17:37;31.10;77.00
35425;DHT22;21537;48.226;16.400;2022-07-23T08:20:05;31.20;76.70
35425;DHT22;21537;48.226;16.400;2022-07-23T08:22:51;31.30;76.60
35425;DHT22;21537;48.226;16.400;2022-07-23T08:25:24;31.50;76.20
35425;DHT22;21537;48.226;16.400;2022-07-23T08:27:50;31.70;76.20
35425;DHT22;21537;48.226;16.400;2022-07-23T08:30:17;31.80;75.90
35425;DHT22;21537;48.226;16.400;2022-07-23T08:35:25;31.90;75.20
35425;DHT22;21537;48.226;16.400;2022-07-23T08:37:51;32.10;74.40
35425;DHT22;21537;48.226;16.400;2022-07-23T08:40:17;31.90;74.20
35425;DHT22;21537;48.226;16.400;2022-07-23T08:42:45;31.70;73.50
35425;DHT22;21537;48.226;16.400;2022-07-23T08:45:13;31.70;74.00
35425;DHT22;21537;48.226;16.400;2022-07-23T08:47:41;31.60;74.20
35425;DHT22;21537;48.226;16.400;2022-07-23T08:50:07;31.70;73.90
35425;DHT22;21537;48.226;16.400;2022-07-23T08:52:34;31.80;73.50
35425;DHT22;21537;48.226;16.400;2022-07-23T08:55:01;31.90;72.80
35425;DHT22;21537;48.226;16.400;2022-07-23T08:57:27;31.90;72.40
35425;DHT22;21537;48.226;16.400;2022-07-23T08:59:53;31.90;72.70
35425;DHT22;21537;48.226;16.400;2022-07-23T09:02:18;32.00;72.50
35425;DHT22;21537;48.226;16.400;2022-07-23T09:04:44;32.20;72.10
35425;DHT22;21537;48.226;16.400;2022-07-23T09:07:10;32.40;71.70
35425;DHT22;21537;48.226;16.400;2022-07-23T09:09:36;32.40;71.50
35425;DHT22;21537;48.226;16.400;2022-07-23T09:12:06;32.60;71.00
35425;DHT22;21537;48.226;16.400;2022-07-23T09:14:43;32.40;71.10
35425;DHT22;21537;48.226;16.400;2022-07-23T09:17:15;32.60;70.90
35425;DHT22;21537;48.226;16.400;2022-07-23T09:19:43;32.70;70.40
35425;DHT22;21537;48.226;16.400;2022-07-23T09:25:07;32.50;71.60
35425;DHT22;21537;48.226;16.400;2022-07-23T09:27:54;32.40;72.00
35425;DHT22;21537;48.226;16.400;2022-07-23T09:30:26;32.40;71.50
35425;DHT22;21537;48.226;16.400;2022-07-23T09:35:49;32.60;71.60
35425;DHT22;21537;48.226;16.400;2022-07-23T09:38:16;32.70;71.50
35425;DHT22;21537;48.226;16.400;2022-07-23T09:40:44;32.80;71.30
35425;DHT22;21537;48.226;16.400;2022-07-23T09:43:10;33.00;70.40
35425;DHT22;21537;48.226;16.400;2022-07-23T09:45:36;33.20;70.10
35425;DHT22;21537;48.226;16.400;2022-07-23T09:48:12;33.40;69.60
35425;DHT22;21537;48.226;16.400;2022-07-23T09:50:39;33.70;69.10
35425;DHT22;21537;48.226;16.400;2022-07-23T09:53:05;33.80;68.90
35425;DHT22;21537;48.226;16.400;2022-07-23T09:55:33;34.10;68.70
35425;DHT22;21537;48.226;16.400;2022-07-23T09:58:03;34.60;67.50
35425;DHT22;21537;48.226;16.400;2022-07-23T10:00:31;34.90;67.10
35425;DHT22;21537;48.226;16.400;2022-07-23T10:02:57;34.40;67.40
35425;DHT22;21537;48.226;16.400;2022-07-23T10:05:27;34.80;67.50
35425;DHT22;21537;48.226;16.400;2022-07-23T10:08:01;35.40;67.10
35425;DHT22;21537;48.226;16.400;2022-07-23T10:11:06;35.20;66.60
35425;DHT22;21537;48.226;16.400;2022-07-23T10:13:55;34.30;67.90
35425;DHT22;21537;48.226;16.400;2022-07-23T10:16:32;35.10;67.20
35425;DHT22;21537;48.226;16.400;2022-07-23T10:18:58;35.80;65.70
35425;DHT22;21537;48.226;16.400;2022-07-23T10:21:37;35.80;65.60
35425;DHT22;21537;48.226;16.400;2022-07-23T10:30:03;40.40;57.90
35425;DHT22;21537;48.226;16.400;2022-07-23T10:38:12;41.80;54.80
35425;DHT22;21537;48.226;16.400;2022-07-23T10:40:59;41.80;55.00
35425;DHT22;21537;48.226;16.400;2022-07-23T10:43:26;41.40;55.30
35425;DHT22;21537;48.226;16.400;2022-07-23T10:45:52;41.60;55.30
35425;DHT22;21537;48.226;16.400;2022-07-23T10:48:21;40.90;55.30
35425;DHT22;21537;48.226;16.400;2022-07-23T10:51:13;40.30;56.10
35425;DHT22;21537;48.226;16.400;2022-07-23T10:59:23;40.80;55.80
35425;DHT22;21537;48.226;16.400;2022-07-23T11:01:49;40.30;55.50
35425;DHT22;21537;48.226;16.400;2022-07-23T11:04:15;40.20;55.70
35425;DHT22;21537;48.226;16.400;2022-07-23T11:09:29;38.40;56.70
35425;DHT22;21537;48.226;16.400;2022-07-23T11:17:32;38.60;56.60
35425;DHT22;21537;48.226;16.400;2022-07-23T11:22:51;37.80;58.30
35425;DHT22;21537;48.226;16.400;2022-07-23T11:28:06;37.70;58.80
35425;DHT22;21537;48.226;16.400;2022-07-23T11:30:37;38.00;58.50
35425;DHT22;21537;48.226;16.400;2022-07-23T11:35:34;38.40;58.40
35425;DHT22;21537;48.226;16.400;2022-07-23T11:38:21;39.00;57.70
35425;DHT22;21537;48.226;16.400;2022-07-23T11:40:54;40.10;56.70
35425;DHT22;21537;48.226;16.400;2022-07-23T11:43:23;41.40;55.50
35425;DHT22;21537;48.226;16.400;2022-07-23T11:45:59;42.60;54.30
35425;DHT22;21537;48.226;16.400;2022-07-23T11:48:30;43.60;53.20
35425;DHT22;21537;48.226;16.400;2022-07-23T11:50:57;44.00;52.50
35425;DHT22;21537;48.226;16.400;2022-07-23T11:53:32;43.80;52.40
35425;DHT22;21537;48.226;16.400;2022-07-23T11:56:10;43.50;52.60
35425;DHT22;21537;48.226;16.400;2022-07-23T11:58:37;42.80;52.90
35425;DHT22;21537;48.226;16.400;2022-07-23T12:01:03;41.90;53.80
35425;DHT22;21537;48.226;16.400;2022-07-23T12:03:30;40.90;54.80
35425;DHT22;21537;48.226;16.400;2022-07-23T12:05:57;40.50;55.40
35425;DHT22;21537;48.226;16.400;2022-07-23T12:08:23;40.70;56.10
35425;DHT22;21537;48.226;16.400;2022-07-23T12:10:49;40.70;55.30
35425;DHT22;21537;48.226;16.400;2022-07-23T12:13:17;41.10;54.80
35425;DHT22;21537;48.226;16.400;2022-07-23T12:15:54;41.00;54.60
35425;DHT22;21537;48.226;16.400;2022-07-23T12:18:26;40.60;54.80
35425;DHT22;21537;48.226;16.400;2022-07-23T12:20:55;39.90;55.50
35425;DHT22;21537;48.226;16.400;2022-07-23T12:23:24;39.50;55.70
35425;DHT22;21537;48.226;16.400;2022-07-23T12:25:51;38.90;56.30
35425;DHT22;21537;48.226;16.400;2022-07-23T12:28:20;38.00;57.20
35425;DHT22;21537;48.226;16.400;2022-07-23T12:30:51;37.20;58.00
35425;DHT22;21537;48.226;16.400;2022-07-23T12:33:26;37.00;58.50
35425;DHT22;21537;48.226;16.400;2022-07-23T12:35:54;36.70;58.80
35425;DHT22;21537;48.226;16.400;2022-07-23T12:38:22;36.60;58.80
35425;DHT22;21537;48.226;16.400;2022-07-23T12:40:49;36.30;58.70
35425;DHT22;21537;48.226;16.400;2022-07-23T12:43:25;35.90;59.00
35425;DHT22;21537;48.226;16.400;2022-07-23T12:50:51;34.00;61.30
35425;DHT22;21537;48.226;16.400;2022-07-23T12:55:50;33.10;62.70
35425;DHT22;21537;48.226;16.400;2022-07-23T12:58:18;33.00;63.20
35425;DHT22;21537;48.226;16.400;2022-07-23T13:00:55;32.90;63.50
35425;DHT22;21537;48.226;16.400;2022-07-23T13:03:34;32.90;63.60
35425;DHT22;21537;48.226;16.400;2022-07-23T13:06:03;32.70;63.50
35425;DHT22;21537;48.226;16.400;2022-07-23T13:08:30;32.70;63.30
35425;DHT22;21537;48.226;16.400;2022-07-23T13:10:57;32.90;63.40
35425;DHT22;21537;48.226;16.400;2022-07-23T13:13:25;32.90;63.30
35425;DHT22;21537;48.226;16.400;2022-07-23T13:15:52;32.60;62.90
35425;DHT22;21537;48.226;16.400;2022-07-23T13:18:18;32.10;61.20
35425;DHT22;21537;48.226;16.400;2022-07-23T13:20:46;31.90;61.30
35425;DHT22;21537;48.226;16.400;2022-07-23T13:23:12;31.80;60.30
35425;DHT22;21537;48.226;16.400;2022-07-23T13:25:38;31.80;60.30
35425;DHT22;21537;48.226;16.400;2022-07-23T13:28:04;32.00;60.20
35425;DHT22;21537;48.226;16.400;2022-07-23T13:30:30;32.30;60.00
35425;DHT22;21537;48.226;16.400;2022-07-23T13:32:57;32.90;59.30
35425;DHT22;21537;48.226;16.400;2022-07-23T13:35:23;33.00;59.00
35425;DHT22;21537;48.226;16.400;2022-07-23T13:37:49;33.70;58.40
35425;DHT22;21537;48.226;16.400;2022-07-23T13:40:15;35.40;56.60
35425;DHT22;21537;48.226;16.400;2022-07-23T13:42:41;36.40;55.00
35425;DHT22;21537;48.226;16.400;2022-07-23T13:45:07;36.30;54.70
35425;DHT22;21537;48.226;16.400;2022-07-23T13:47:33;36.10;54.70
35425;DHT22;21537;48.226;16.400;2022-07-23T13:49:59;35.80;54.80
35425;DHT22;21537;48.226;16.400;2022-07-23T13:52:24;35.30;55.30
35425;DHT22;21537;48.226;16.400;2022-07-23T13:54:51;35.10;55.70
35425;DHT22;21537;48.226;16.400;2022-07-23T13:57:17;34.70;55.70
35425;DHT22;21537;48.226;16.400;2022-07-23T13:59:43;34.80;55.70
35425;DHT22;21537;48.226;16.400;2022-07-23T14:02:09;34.30;56.20
35425;DHT22;21537;48.226;16.400;2022-07-23T14:04:38;34.40;56.40
35425;DHT22;21537;48.226;16.400;2022-07-23T14:07:03;34.60;56.00
35425;DHT22;21537;48.226;16.400;2022-07-23T14:09:29;35.60;55.20
35425;DHT22;21537;48.226;16.400;2022-07-23T14:11:59;37.20;53.80
35425;DHT22;21537;48.226;16.400;2022-07-23T14:14:25;38.70;52.60
35425;DHT22;21537;48.226;16.400;2022-07-23T14:16:51;38.70;51.40
35425;DHT22;21537;48.226;16.400;2022-07-23T14:19:17;38.50;51.90
35425;DHT22;21537;48.226;16.400;2022-07-23T14:21:43;37.70;52.30
35425;DHT22;21537;48.226;16.400;2022-07-23T14:24:09;37.50;51.20
35425;DHT22;21537;48.226;16.400;2022-07-23T14:26:34;36.70;49.90
35425;DHT22;21537;48.226;16.400;2022-07-23T14:29:01;35.90;50.10
35425;DHT22;21537;48.226;16.400;2022-07-23T14:31:27;35.30;50.00
35425;DHT22;21537;48.226;16.400;2022-07-23T14:33:53;35.10;50.50
35425;DHT22;21537;48.226;16.400;2022-07-23T14:36:18;34.90;50.70
35425;DHT22;21537;48.226;16.400;2022-07-23T14:38:44;35.40;50.40
35425;DHT22;21537;48.226;16.400;2022-07-23T14:41:10;35.90;50.30
35425;DHT22;21537;48.226;16.400;2022-07-23T14:43:37;36.70;50.10
35425;DHT22;21537;48.226;16.400;2022-07-23T14:46:03;37.20;49.80
35425;DHT22;21537;48.226;16.400;2022-07-23T14:48:28;38.00;49.20
35425;DHT22;21537;48.226;16.400;2022-07-23T14:50:54;38.40;49.00
35425;DHT22;21537;48.226;16.400;2022-07-23T14:53:20;38.60;49.20
35425;DHT22;21537;48.226;16.400;2022-07-23T14:55:46;39.10;48.60
35425;DHT22;21537;48.226;16.400;2022-07-23T14:58:12;39.70;48.20
35425;DHT22;21537;48.226;16.400;2022-07-23T15:00:38;40.00;47.80
35425;DHT22;21537;48.226;16.400;2022-07-23T15:03:04;40.20;47.70
35425;DHT22;21537;48.226;16.400;2022-07-23T15:05:30;40.20;47.70
35425;DHT22;21537;48.226;16.400;2022-07-23T15:07:56;40.00;48.00
35425;DHT22;21537;48.226;16.400;2022-07-23T15:10:22;39.50;48.20
35425;DHT22;21537;48.226;16.400;2022-07-23T15:12:48;39.20;48.60
35425;DHT22;21537;48.226;16.400;2022-07-23T15:15:14;38.80;49.10
35425;DHT22;21537;48.226;16.400;2022-07-23T15:17:39;38.60;49.30
35425;DHT22;21537;48.226;16.400;2022-07-23T15:20:06;38.50;49.50
35425;DHT22;21537;48.226;16.400;2022-07-23T15:22:32;38.70;49.50
35425;DHT22;21537;48.226;16.400;2022-07-23T15:24:58;38.60;49.70
35425;DHT22;21537;48.226;16.400;2022-07-23T15:27:24;38.70;50.10
35425;DHT22;21537;48.226;16.400;2022-07-23T15:29:50;38.50;49.90
35425;DHT22;21537;48.226;16.400;2022-07-23T15:32:16;38.70;49.60
35425;DHT22;21537;48.226;16.400;2022-07-23T15:34:41;38.80;49.70
35425;DHT22;21537;48.226;16.400;2022-07-23T15:37:07;39.20;49.50
35425;DHT22;21537;48.226;16.400;2022-07-23T15:39:33;39.80;49.40
35425;DHT22;21537;48.226;16.400;2022-07-23T15:42:00;40.40;49.00
35425;DHT22;21537;48.226;16.400;2022-07-23T15:44:26;40.60;48.80
35425;DHT22;21537;48.226;16.400;2022-07-23T15:46:52;40.70;48.80
35425;DHT22;21537;48.226;16.400;2022-07-23T15:49:18;40.50;49.30
35425;DHT22;21537;48.226;16.400;2022-07-23T15:51:44;40.40;49.50
35425;DHT22;21537;48.226;16.400;2022-07-23T15:54:10;39.70;49.90
35425;DHT22;21537;48.226;16.400;2022-07-23T15:56:35;38.90;50.60
35425;DHT22;21537;48.226;16.400;2022-07-23T15:59:02;37.90;51.10
35425;DHT22;21537;48.226;16.400;2022-07-23T16:01:28;36.80;52.30
35425;DHT22;21537;48.226;16.400;2022-07-23T16:03:57;36.00;53.30
35425;DHT22;21537;48.226;16.400;2022-07-23T16:06:26;35.60;54.10
35425;DHT22;21537;48.226;16.400;2022-07-23T16:08:52;35.30;54.60